Time;durP1;ratioP1;P1;durP2;ratioP2;P2;SDS_P1;SDS_P2;PMS_P1;PMS_P2;Temp;Humidity;BMP_temperature;BMP_pressure;BME280_temperature;BME280_humidity;BME280_pressure;Samples;Min_cycle;Max_cycle;Signal;HPM_P1;HPM_P2
2022/05/14 00:00:24;;;;;;;;;11.00;6.25;;;;;;;;5140712;27;11370;-72
2022/05/14 00:02:50;;;;;;;;;6.50;6.50;;;;;;;;5141243;27;22853;-72
2022/05/14 00:05:17;;;;;;;;;3.00;3.00;;;;;;;;5122067;27;21636;-73
2022/05/14 00:07:42;;;;;;;;;3.00;3.00;;;;;;;;5140878;27;13101;-73
2022/05/14 00:10:07;;;;;;;;;4.25;4.00;;;;;;;;5140994;27;11468;-73
2022/05/14 00:15:17;;;;;;;;;6.50;6.00;;;;;;;;5140757;27;12328;-72
2022/05/14 00:17:42;;;;;;;;;7.00;7.00;;;;;;;;5140536;27;11872;-72
2022/05/14 00:20:08;;;;;;;;;5.75;4.00;;;;;;;;5141238;27;11505;-72
2022/05/14 00:22:33;;;;;;;;;10.25;8.00;;;;;;;;5139557;27;10556;-72
2022/05/14 00:24:58;;;;;;;;;7.00;5.50;;;;;;;;5140928;27;21382;-72
2022/05/14 00:27:24;;;;;;;;;7.00;6.00;;;;;;;;5141165;27;21387;-72
2022/05/14 00:29:49;;;;;;;;;6.00;6.00;;;;;;;;5141495;27;8863;-72
2022/05/14 00:32:14;;;;;;;;;7.75;7.00;;;;;;;;5141203;27;8786;-73
2022/05/14 00:34:39;;;;;;;;;8.75;7.50;;;;;;;;5141507;27;10373;-72
2022/05/14 00:37:05;;;;;;;;;7.00;7.00;;;;;;;;5122083;27;11814;-73
2022/05/14 00:39:30;;;;;;;;;5.75;5.50;;;;;;;;5141165;27;11395;-73
2022/05/14 00:41:55;;;;;;;;;5.25;5.25;;;;;;;;5140595;27;11361;-73
2022/05/14 00:44:21;;;;;;;;;7.25;7.00;;;;;;;;5140647;27;8841;-72
2022/05/14 00:46:46;;;;;;;;;6.00;6.00;;;;;;;;5140791;27;11301;-73
2022/05/14 00:49:12;;;;;;;;;8.00;6.25;;;;;;;;5140183;27;10497;-73
2022/05/14 00:51:39;;;;;;;;;6.25;5.75;;;;;;;;5140745;27;11418;-73
2022/05/14 00:54:06;;;;;;;;;9.00;7.75;;;;;;;;5140959;27;11330;-72
2022/05/14 00:56:37;;;;;;;;;11.75;7.50;;;;;;;;5140204;27;11423;-72
2022/05/14 00:59:02;;;;;;;;;7.25;7.25;;;;;;;;5139418;27;22975;-72
2022/05/14 01:01:29;;;;;;;;;8.00;8.00;;;;;;;;5120533;27;22812;-72
2022/05/14 01:03:54;;;;;;;;;6.75;6.75;;;;;;;;5140609;27;11448;-72
2022/05/14 01:06:20;;;;;;;;;7.25;7.00;;;;;;;;5140462;27;11441;-72
2022/05/14 01:08:47;;;;;;;;;10.00;7.50;;;;;;;;5121628;27;13598;-72
2022/05/14 01:11:13;;;;;;;;;6.00;6.00;;;;;;;;5120210;27;24647;-72
2022/05/14 01:13:39;;;;;;;;;6.50;6.00;;;;;;;;5140057;27;21590;-72
2022/05/14 01:16:04;;;;;;;;;5.50;5.50;;;;;;;;5140628;27;8818;-72
2022/05/14 01:18:32;;;;;;;;;7.00;7.00;;;;;;;;5121609;27;13755;-72
2022/05/14 01:20:57;;;;;;;;;7.00;7.00;;;;;;;;5139348;27;11383;-74
2022/05/14 01:26:29;;;;;;;;;8.00;7.00;;;;;;;;5139417;27;11295;-72
2022/05/14 01:28:58;;;;;;;;;5.50;5.50;;;;;;;;5140067;27;11440;-74
2022/05/14 01:31:24;;;;;;;;;5.00;5.00;;;;;;;;5139533;27;12338;-73
2022/05/14 01:33:49;;;;;;;;;9.50;6.50;;;;;;;;5140133;27;11395;-73
2022/05/14 01:36:15;;;;;;;;;9.75;6.75;;;;;;;;5140219;27;12721;-74
2022/05/14 01:38:40;;;;;;;;;9.50;7.50;;;;;;;;5140531;27;8889;-73
2022/05/14 01:41:06;;;;;;;;;4.00;4.00;;;;;;;;5140251;27;11345;-74
2022/05/14 01:43:31;;;;;;;;;6.25;6.25;;;;;;;;5121027;27;13626;-73
2022/05/14 01:45:57;;;;;;;;;9.00;6.00;;;;;;;;5139642;27;11598;-73
2022/05/14 01:48:22;;;;;;;;;7.50;6.50;;;;;;;;5139736;27;11318;-73
2022/05/14 01:50:47;;;;;;;;;11.75;8.25;;;;;;;;5139626;27;11707;-73
2022/05/14 01:53:12;;;;;;;;;10.25;7.50;;;;;;;;5138991;27;21479;-73
2022/05/14 01:55:38;;;;;;;;;9.25;6.00;;;;;;;;5139431;27;10287;-73
2022/05/14 01:58:49;;;;;;;;;6.50;6.50;;;;;;;;5139057;27;22723;-73
2022/05/14 02:00:50;;;;;;;;;7.25;7.00;;;;;;;;5121908;27;11559;-73
2022/05/14 02:03:15;;;;;;;;;10.00;9.50;;;;;;;;5139828;27;12101;-73
2022/05/14 02:05:40;;;;;;;;;8.25;8.00;;;;;;;;5139375;27;21315;-73
2022/05/14 02:08:05;;;;;;;;;10.00;7.50;;;;;;;;5139405;27;22756;-73
2022/05/14 02:10:31;;;;;;;;;6.25;4.00;;;;;;;;5119903;27;23320;-73
2022/05/14 02:12:57;;;;;;;;;10.00;7.00;;;;;;;;5139018;27;22506;-73
2022/05/14 02:15:23;;;;;;;;;8.00;5.00;;;;;;;;5138864;27;21980;-73
2022/05/14 02:17:48;;;;;;;;;5.75;5.00;;;;;;;;5138657;27;21419;-74
2022/05/14 02:20:13;;;;;;;;;9.25;7.50;;;;;;;;5138997;27;8776;-73
2022/05/14 02:22:38;;;;;;;;;6.50;6.25;;;;;;;;5138674;27;11515;-73
2022/05/14 02:25:04;;;;;;;;;7.75;5.25;;;;;;;;5139255;27;11293;-73
2022/05/14 02:27:29;;;;;;;;;6.00;6.00;;;;;;;;5139386;27;10546;-73
2022/05/14 02:29:54;;;;;;;;;6.25;6.25;;;;;;;;5139347;27;11831;-73
2022/05/14 02:32:25;;;;;;;;;7.50;5.00;;;;;;;;5139338;27;8852;-73
2022/05/14 02:34:51;;;;;;;;;9.50;6.50;;;;;;;;5139289;27;11395;-72
2022/05/14 02:37:17;;;;;;;;;5.75;5.50;;;;;;;;5138940;27;11446;-72
2022/05/14 02:39:43;;;;;;;;;7.25;5.50;;;;;;;;5142774;27;10654;-72
2022/05/14 02:42:08;;;;;;;;;7.00;6.00;;;;;;;;5141967;27;11495;-72
2022/05/14 02:44:33;;;;;;;;;6.00;5.00;;;;;;;;5142346;27;10903;-72
2022/05/14 02:46:58;;;;;;;;;6.00;6.00;;;;;;;;5123685;27;8835;-72
2022/05/14 02:49:24;;;;;;;;;9.00;8.00;;;;;;;;5143031;27;8881;-72
2022/05/14 02:51:49;;;;;;;;;6.00;5.00;;;;;;;;5142608;27;8794;-72
2022/05/14 02:54:14;;;;;;;;;11.25;9.00;;;;;;;;5142844;27;8839;-72
2022/05/14 02:56:40;;;;;;;;;8.50;7.50;;;;;;;;5142227;27;21385;-72
2022/05/14 02:59:08;;;;;;;;;7.50;6.75;;;;;;;;5142235;27;21341;-72
2022/05/14 03:01:34;;;;;;;;;9.00;5.00;;;;;;;;5142667;27;11395;-72
2022/05/14 03:04:00;;;;;;;;;7.50;7.00;;;;;;;;5142321;27;11371;-72
2022/05/14 11:53:17;;;;;;;;;8.00;8.00;;;;;;;;5112561;27;1383844;-78
2022/05/14 11:55:52;;;;;;;;;7.33;6.33;;;;;;;;5150435;27;20669;-75
2022/05/14 11:58:27;;;;;;;;;7.00;7.00;;;;;;;;5147405;27;11930;-77
2022/05/14 12:00:53;;;;;;;;;6.50;6.00;;;;;;;;5149085;27;10359;-74
2022/05/14 12:03:25;;;;;;;;;9.50;6.25;;;;;;;;5125733;27;12353;-76
2022/05/14 12:06:08;;;;;;;;;9.00;9.00;;;;;;;;5127501;27;13694;-74
2022/05/14 12:08:43;;;;;;;;;2.00;0.75;;;;;;;;5147204;27;10384;-74
2022/05/14 12:11:17;;;;;;;;;4.50;4.50;;;;;;;;5145499;27;11433;-74
2022/05/14 12:13:58;;;;;;;;;6.00;4.25;;;;;;;;5144571;27;11491;-74
2022/05/14 12:16:28;;;;;;;;;8.75;7.00;;;;;;;;5143849;27;12092;-75
2022/05/14 12:18:56;;;;;;;;;8.75;6.00;;;;;;;;5126896;27;13469;-75
2022/05/14 12:21:23;;;;;;;;;6.75;6.00;;;;;;;;5147015;27;9413;-75
2022/05/14 12:23:48;;;;;;;;;9.25;6.25;;;;;;;;5144948;27;9484;-72
2022/05/14 12:26:26;;;;;;;;;6.25;5.75;;;;;;;;5147678;27;11277;-76
2022/05/14 12:28:53;;;;;;;;;7.25;7.25;;;;;;;;5146728;27;10432;-74
2022/05/14 12:34:07;;;;;;;;;7.00;7.00;;;;;;;;5148471;27;11309;-75
2022/05/14 12:36:34;;;;;;;;;6.25;6.25;;;;;;;;5156703;27;11375;-75
2022/05/14 12:39:03;;;;;;;;;9.00;6.00;;;;;;;;5156978;27;11346;-75
2022/05/14 12:41:32;;;;;;;;;7.75;5.50;;;;;;;;5156564;27;11360;-74
2022/05/14 12:44:10;;;;;;;;;6.75;6.75;;;;;;;;5155032;27;11388;-75
2022/05/14 12:46:44;;;;;;;;;11.00;7.75;;;;;;;;5136367;27;11629;-75
2022/05/14 12:49:20;;;;;;;;;7.00;6.00;;;;;;;;5156500;27;21548;-75
2022/05/14 12:51:47;;;;;;;;;6.75;6.75;;;;;;;;5155635;27;22663;-74
2022/05/14 12:54:20;;;;;;;;;6.75;6.75;;;;;;;;5156304;27;11392;-75
2022/05/14 12:56:46;;;;;;;;;11.75;10.00;;;;;;;;5157016;27;9538;-73
2022/05/14 12:59:11;;;;;;;;;7.75;6.75;;;;;;;;5156003;27;22648;-75
2022/05/14 13:01:36;;;;;;;;;8.25;7.25;;;;;;;;5156157;27;22174;-75
2022/05/14 13:04:05;;;;;;;;;7.00;7.00;;;;;;;;5145173;27;10339;-74
2022/05/14 13:06:34;;;;;;;;;9.25;7.75;;;;;;;;5142579;27;11354;-75
2022/05/14 13:09:05;;;;;;;;;10.00;10.00;;;;;;;;5142147;27;11937;-75
2022/05/14 13:11:31;;;;;;;;;10.75;9.50;;;;;;;;5142044;27;22341;-75
2022/05/14 13:13:59;;;;;;;;;9.25;6.00;;;;;;;;5138387;27;21790;-74
2022/05/14 13:16:26;;;;;;;;;9.75;8.75;;;;;;;;5121058;27;24123;-76
2022/05/14 13:18:56;;;;;;;;;11.00;9.00;;;;;;;;5140238;27;10353;-76
2022/05/14 13:21:33;;;;;;;;;7.50;6.75;;;;;;;;5141613;27;21455;-77
2022/05/14 13:24:00;;;;;;;;;12.00;11.00;;;;;;;;5123179;27;21997;-77
2022/05/14 13:26:25;;;;;;;;;11.50;10.00;;;;;;;;5122286;27;22838;-76
2022/05/14 13:28:50;;;;;;;;;7.00;7.00;;;;;;;;5141666;27;11855;-76
2022/05/14 13:31:18;;;;;;;;;9.00;7.75;;;;;;;;5140994;27;22433;-78
2022/05/14 13:33:43;;;;;;;;;8.25;7.25;;;;;;;;5128989;27;11363;-79
2022/05/14 13:39:09;;;;;;;;;11.75;9.50;;;;;;;;5143164;27;11507;-76
2022/05/14 13:41:40;;;;;;;;;7.00;7.00;;;;;;;;5141338;27;22815;-77
2022/05/14 13:44:05;;;;;;;;;9.25;8.50;;;;;;;;5141844;27;21450;-85
2022/05/14 13:46:33;;;;;;;;;8.75;8.25;;;;;;;;5137586;27;11955;-77
2022/05/14 13:48:58;;;;;;;;;12.50;10.50;;;;;;;;5130132;27;11385;-77
2022/05/14 13:51:31;;;;;;;;;8.50;8.00;;;;;;;;5131424;27;22238;-77
2022/05/14 13:54:27;;;;;;;;;6.00;5.00;;;;;;;;5111715;27;22623;-77
2022/05/14 13:56:59;;;;;;;;;8.50;6.75;;;;;;;;5129799;27;10369;-78
2022/05/14 13:59:27;;;;;;;;;9.00;9.00;;;;;;;;5121153;28;13119;-78
2022/05/14 14:01:57;;;;;;;;;10.00;8.00;;;;;;;;5120811;28;11398;-77
2022/05/14 14:04:24;;;;;;;;;9.50;7.75;;;;;;;;5111092;22;21425;-88
2022/05/14 14:06:52;;;;;;;;;7.33;6.00;;;;;;;;5074429;28;22259;-87
2022/05/14 14:09:17;;;;;;;;;11.00;7.67;;;;;;;;5088970;28;11376;-88
2022/05/14 14:11:44;;;;;;;;;7.00;6.00;;;;;;;;5089652;28;21949;-87
2022/05/14 14:14:10;;;;;;;;;8.25;7.00;;;;;;;;5086852;28;21614;-88
2022/05/14 14:16:35;;;;;;;;;7.00;6.00;;;;;;;;5087265;28;10318;-88
2022/05/14 14:19:01;;;;;;;;;6.25;6.00;;;;;;;;5090003;28;10260;-88
2022/05/14 14:21:26;;;;;;;;;12.50;7.00;;;;;;;;5090405;28;8981;-87
2022/05/14 14:23:54;;;;;;;;;8.33;5.33;;;;;;;;5088316;28;21364;-87
2022/05/14 14:26:20;;;;;;;;;6.33;6.33;;;;;;;;5087351;28;21412;-89
2022/05/14 14:28:48;;;;;;;;;8.00;4.75;;;;;;;;5089645;28;9423;-87
2022/05/14 14:31:18;;;;;;;;;8.25;5.75;;;;;;;;5070366;28;12946;-84
2022/05/14 14:33:43;;;;;;;;;8.00;7.00;;;;;;;;5097060;28;9791;-84
2022/05/14 14:36:09;;;;;;;;;6.33;5.67;;;;;;;;5088987;28;10669;-77
2022/05/14 14:38:35;;;;;;;;;5.33;5.00;;;;;;;;5087029;28;11675;-78
2022/05/14 14:41:00;;;;;;;;;7.00;6.50;;;;;;;;5088377;28;12040;-78
2022/05/14 14:43:26;;;;;;;;;6.00;6.00;;;;;;;;5091200;28;11312;-74
2022/05/14 14:45:54;;;;;;;;;7.00;6.00;;;;;;;;5090532;28;11440;-73
2022/05/14 14:48:20;;;;;;;;;9.25;6.00;;;;;;;;5067979;28;8789;-73
2022/05/14 14:50:46;;;;;;;;;6.67;5.67;;;;;;;;5088606;28;9614;-73
2022/05/14 14:53:11;;;;;;;;;7.75;7.00;;;;;;;;5088932;28;11319;-73
2022/05/14 14:55:37;;;;;;;;;10.75;8.50;;;;;;;;5068927;28;11729;-73
2022/05/14 14:58:02;;;;;;;;;9.25;6.50;;;;;;;;5070559;28;22822;-76
2022/05/14 15:00:30;;;;;;;;;6.50;6.00;;;;;;;;5085449;28;22606;-73
2022/05/14 15:02:58;;;;;;;;;6.75;6.00;;;;;;;;5083226;28;11551;-75
2022/05/14 15:05:26;;;;;;;;;10.25;7.50;;;;;;;;5082496;28;9420;-74
2022/05/14 15:07:51;;;;;;;;;5.75;5.75;;;;;;;;5077757;28;21651;-74
2022/05/14 15:10:17;;;;;;;;;8.50;6.50;;;;;;;;5078383;28;22729;-77
2022/05/14 15:12:43;;;;;;;;;7.00;6.00;;;;;;;;5078346;28;11367;-81
2022/05/14 15:15:09;;;;;;;;;8.00;7.00;;;;;;;;5078695;28;11852;-76
2022/05/14 15:17:34;;;;;;;;;8.00;7.00;;;;;;;;5078460;28;8804;-73
2022/05/14 15:20:00;;;;;;;;;6.50;6.00;;;;;;;;5077487;28;9452;-75
2022/05/14 15:22:25;;;;;;;;;8.00;6.75;;;;;;;;5086269;28;10277;-73
2022/05/14 15:24:52;;;;;;;;;6.00;6.00;;;;;;;;5098898;28;11530;-74
2022/05/14 15:27:17;;;;;;;;;6.00;6.00;;;;;;;;5098884;28;11436;-75
2022/05/14 15:29:42;;;;;;;;;8.75;7.25;;;;;;;;5099393;28;9603;-74
2022/05/14 15:32:08;;;;;;;;;8.50;6.00;;;;;;;;5098975;28;11311;-75
2022/05/14 15:34:33;;;;;;;;;7.00;5.00;;;;;;;;5098649;28;10263;-75
2022/05/14 15:36:58;;;;;;;;;6.00;6.00;;;;;;;;5098042;28;11411;-72
2022/05/14 15:39:24;;;;;;;;;7.50;5.75;;;;;;;;5095559;28;8827;-72
2022/05/14 15:41:51;;;;;;;;;7.50;6.00;;;;;;;;5099402;28;12359;-73
2022/05/14 15:44:21;;;;;;;;;10.00;6.75;;;;;;;;5063321;28;9630;-74
2022/05/14 15:46:58;;;;;;;;;6.75;6.75;;;;;;;;5097666;28;22704;-74
2022/05/14 15:49:44;;;;;;;;;6.75;6.25;;;;;;;;5097698;28;16445;-73
2022/05/14 15:52:10;;;;;;;;;7.67;7.67;;;;;;;;5098582;28;9628;-71
2022/05/14 15:54:36;;;;;;;;;6.75;6.00;;;;;;;;5098812;28;11549;-70
2022/05/14 15:57:01;;;;;;;;;13.00;6.50;;;;;;;;5098773;28;11624;-70
2022/05/14 15:59:26;;;;;;;;;6.25;5.75;;;;;;;;5097870;28;21484;-70
2022/05/14 16:01:52;;;;;;;;;7.00;7.00;;;;;;;;5098127;28;22566;-72
2022/05/14 16:04:18;;;;;;;;;9.50;6.25;;;;;;;;5098279;28;11544;-73
2022/05/14 16:06:43;;;;;;;;;6.25;6.00;;;;;;;;5097727;28;11744;-74
2022/05/14 16:09:09;;;;;;;;;7.50;7.00;;;;;;;;5097329;28;11314;-74
2022/05/14 16:17:22;;;;;;;;;7.50;7.50;;;;;;;;5055097;28;21764;-73
2022/05/14 16:19:47;;;;;;;;;10.75;8.00;;;;;;;;5054911;28;11440;-73
2022/05/14 16:22:13;;;;;;;;;10.75;7.00;;;;;;;;5054478;28;21713;-72
2022/05/14 16:24:38;;;;;;;;;9.00;9.00;;;;;;;;5038945;28;9027;-69
2022/05/14 16:27:03;;;;;;;;;7.50;7.50;;;;;;;;5054885;28;21470;-74
2022/05/14 16:30:08;;;;;;;;;6.00;5.33;;;;;;;;5054478;28;11469;-73
2022/05/14 16:32:14;;;;;;;;;6.75;6.50;;;;;;;;5054168;28;11556;-72
2022/05/14 16:34:40;;;;;;;;;9.50;7.25;;;;;;;;5054815;28;10278;-75
2022/05/14 16:37:05;;;;;;;;;7.00;7.00;;;;;;;;5055101;28;11363;-74
2022/05/14 16:39:30;;;;;;;;;6.25;5.75;;;;;;;;5057004;28;11287;-72
2022/05/14 16:41:55;;;;;;;;;9.00;7.00;;;;;;;;5057657;28;11366;-72
2022/05/14 16:44:21;;;;;;;;;7.00;6.50;;;;;;;;5059249;28;12427;-73
2022/05/14 16:46:46;;;;;;;;;9.75;7.00;;;;;;;;5058811;28;11536;-70
2022/05/14 16:49:12;;;;;;;;;9.75;7.00;;;;;;;;5098635;28;12110;-73
2022/05/14 16:51:37;;;;;;;;;12.25;8.50;;;;;;;;5101143;28;9523;-72
2022/05/14 16:54:04;;;;;;;;;8.50;7.00;;;;;;;;5101701;28;21448;-71
2022/05/14 16:56:30;;;;;;;;;11.25;6.75;;;;;;;;5082006;28;23965;-72
2022/05/14 16:58:55;;;;;;;;;6.00;5.00;;;;;;;;5081771;28;21734;-71
2022/05/14 17:01:21;;;;;;;;;8.75;6.00;;;;;;;;5081897;28;23460;-72
2022/05/14 17:03:46;;;;;;;;;10.50;8.75;;;;;;;;5081670;28;10676;-73
2022/05/14 17:06:12;;;;;;;;;11.50;9.25;;;;;;;;5100460;28;21661;-73
2022/05/14 17:08:37;;;;;;;;;10.25;7.00;;;;;;;;5100158;28;9949;-75
2022/05/14 17:11:02;;;;;;;;;9.75;7.50;;;;;;;;5081943;28;12312;-72
2022/05/14 17:13:28;;;;;;;;;13.00;9.50;;;;;;;;5100314;28;21271;-74
2022/05/14 17:15:53;;;;;;;;;15.50;13.75;;;;;;;;5100060;28;21631;-76
2022/05/14 17:18:19;;;;;;;;;8.50;6.00;;;;;;;;5068696;28;23757;-73
2022/05/14 17:20:47;;;;;;;;;6.00;5.00;;;;;;;;5098792;28;22604;-77
2022/05/14 17:23:12;;;;;;;;;5.00;5.00;;;;;;;;5101185;28;10695;-78
2022/05/14 17:25:38;;;;;;;;;9.00;8.00;;;;;;;;5101304;28;9479;-75
2022/05/14 17:28:04;;;;;;;;;13.75;10.00;;;;;;;;5100859;28;8791;-80
2022/05/14 17:30:32;;;;;;;;;6.50;6.50;;;;;;;;5081000;28;24364;-79
2022/05/14 17:32:58;;;;;;;;;8.50;8.00;;;;;;;;5072795;28;24799;-79
2022/05/14 17:35:23;;;;;;;;;10.50;8.75;;;;;;;;5089701;28;11314;-77
2022/05/14 17:40:33;;;;;;;;;10.50;6.50;;;;;;;;5088911;28;21307;-84
2022/05/14 17:42:59;;;;;;;;;6.50;6.00;;;;;;;;5069416;28;21761;-81
2022/05/14 17:45:25;;;;;;;;;8.50;8.50;;;;;;;;5089233;28;22531;-83
2022/05/14 17:47:51;;;;;;;;;6.75;6.75;;;;;;;;5071084;28;11900;-80
2022/05/14 17:50:19;;;;;;;;;8.25;6.00;;;;;;;;5088517;28;11527;-79
2022/05/14 17:52:45;;;;;;;;;10.00;8.00;;;;;;;;5089106;28;11383;-79
2022/05/14 17:55:11;;;;;;;;;9.50;9.00;;;;;;;;5087930;28;21852;-78
2022/05/14 17:57:43;;;;;;;;;10.50;8.25;;;;;;;;5086674;28;22904;-79
2022/05/14 18:00:11;;;;;;;;;8.75;8.50;;;;;;;;5088467;28;21562;-80
2022/05/14 18:02:36;;;;;;;;;8.00;8.00;;;;;;;;5091244;28;21606;-78
2022/05/14 18:05:01;;;;;;;;;10.25;9.75;;;;;;;;5087535;28;9847;-78
2022/05/14 18:07:29;;;;;;;;;8.50;8.25;;;;;;;;5087946;28;22035;-77
2022/05/14 18:09:54;;;;;;;;;8.75;8.00;;;;;;;;5089353;28;21605;-80
2022/05/14 18:12:20;;;;;;;;;9.25;8.75;;;;;;;;5089383;28;10294;-79
2022/05/14 18:14:45;;;;;;;;;8.00;8.00;;;;;;;;5087488;28;11437;-77
2022/05/14 18:17:11;;;;;;;;;10.25;7.50;;;;;;;;5086997;28;11820;-87
2022/05/14 18:19:37;;;;;;;;;8.50;8.50;;;;;;;;5086294;28;21330;-79
2022/05/14 18:22:04;;;;;;;;;10.50;9.00;;;;;;;;5088463;28;21590;-79
2022/05/14 18:24:32;;;;;;;;;13.25;9.75;;;;;;;;5087851;28;21930;-83
2022/05/14 18:27:21;;;;;;;;;8.50;8.50;;;;;;;;5068055;28;13937;-78
2022/05/14 18:29:53;;;;;;;;;8.75;8.50;;;;;;;;5093854;28;21551;-79
2022/05/14 18:32:26;;;;;;;;;8.75;7.25;;;;;;;;5081062;28;9907;-79
2022/05/14 18:34:52;;;;;;;;;10.00;9.00;;;;;;;;5089511;28;10338;-79
2022/05/14 18:37:17;;;;;;;;;9.00;9.00;;;;;;;;5091369;28;21754;-78
2022/05/14 18:39:46;;;;;;;;;9.75;8.75;;;;;;;;5086834;28;17576;-77
2022/05/14 18:42:12;;;;;;;;;10.25;8.00;;;;;;;;5085857;28;10591;-74
2022/05/14 18:44:40;;;;;;;;;8.25;8.00;;;;;;;;5088096;28;23088;-75
2022/05/14 18:47:06;;;;;;;;;8.75;8.50;;;;;;;;5088326;28;16399;-73
2022/05/14 18:49:31;;;;;;;;;21.00;18.00;;;;;;;;5089513;28;10358;-76
2022/05/14 18:51:56;;;;;;;;;9.00;7.00;;;;;;;;5085663;28;23741;-75
2022/05/14 18:54:22;;;;;;;;;11.00;9.00;;;;;;;;5087386;28;22512;-75
2022/05/14 18:56:47;;;;;;;;;9.75;8.50;;;;;;;;5087165;28;21972;-78
2022/05/14 18:59:12;;;;;;;;;14.00;11.00;;;;;;;;5088711;28;22529;-77
2022/05/14 19:01:40;;;;;;;;;7.00;5.00;;;;;;;;5066568;28;24485;-79
2022/05/14 19:07:14;;;;;;;;;16.75;13.75;;;;;;;;5056026;28;23344;-80
2022/05/14 19:09:40;;;;;;;;;14.00;11.00;;;;;;;;5089841;28;11814;-81
2022/05/14 19:12:06;;;;;;;;;11.75;9.00;;;;;;;;5068906;28;13967;-85
2022/05/14 19:14:33;;;;;;;;;36.75;33.00;;;;;;;;5085354;28;21372;-77
2022/05/14 19:16:58;;;;;;;;;19.75;17.75;;;;;;;;5059439;28;24930;-80
2022/05/14 19:19:23;;;;;;;;;10.00;8.75;;;;;;;;5059178;28;15908;-76
2022/05/14 19:21:49;;;;;;;;;19.25;16.75;;;;;;;;5081667;28;22607;-79
2022/05/14 19:24:15;;;;;;;;;10.00;9.25;;;;;;;;5087514;28;21519;-77
2022/05/14 19:26:41;;;;;;;;;26.00;18.75;;;;;;;;5085725;28;22152;-77
2022/05/14 19:29:06;;;;;;;;;26.25;20.50;;;;;;;;5086269;28;22693;-80
2022/05/14 19:31:32;;;;;;;;;14.00;10.75;;;;;;;;5087159;28;12233;-75
2022/05/14 19:33:58;;;;;;;;;22.50;18.25;;;;;;;;5085248;28;13218;-81
2022/05/14 19:36:24;;;;;;;;;40.50;36.00;;;;;;;;5086247;28;13663;-78
2022/05/14 19:38:50;;;;;;;;;35.50;28.50;;;;;;;;5087029;28;13344;-75
2022/05/14 19:41:31;;;;;;;;;26.00;25.00;;;;;;;;5085471;28;13789;-75
2022/05/14 19:44:07;;;;;;;;;23.50;20.75;;;;;;;;5080815;28;13325;-77
2022/05/14 19:46:36;;;;;;;;;18.25;12.00;;;;;;;;5068392;28;15057;-76
2022/05/14 19:49:01;;;;;;;;;10.25;10.25;;;;;;;;5086907;28;13372;-76
2022/05/14 19:51:27;;;;;;;;;9.00;8.00;;;;;;;;5066762;28;11828;-78
2022/05/14 19:53:52;;;;;;;;;10.25;10.00;;;;;;;;5086694;28;22721;-77
2022/05/14 19:56:18;;;;;;;;;26.75;22.75;;;;;;;;5084685;28;22853;-77
2022/05/14 19:58:44;;;;;;;;;13.00;11.00;;;;;;;;5087647;28;13243;-76
2022/05/14 20:01:10;;;;;;;;;23.75;19.50;;;;;;;;5085339;28;14368;-78
2022/05/14 20:03:36;;;;;;;;;20.75;14.25;;;;;;;;5085462;28;14601;-75
2022/05/14 20:06:01;;;;;;;;;11.50;10.75;;;;;;;;5059003;28;11798;-75
2022/05/14 20:08:26;;;;;;;;;18.25;18.00;;;;;;;;5077540;28;12195;-76
2022/05/14 20:10:52;;;;;;;;;24.25;23.25;;;;;;;;5083112;28;11378;-76
2022/05/14 20:13:20;;;;;;;;;24.00;21.50;;;;;;;;5098151;28;13560;-75
2022/05/14 20:15:46;;;;;;;;;9.25;9.25;;;;;;;;5101601;28;10441;-74
2022/05/14 20:20:55;;;;;;;;;12.50;11.75;;;;;;;;5089013;28;21471;-74
2022/05/14 20:23:23;;;;;;;;;11.00;10.00;;;;;;;;5091752;28;22675;-75
2022/05/14 20:25:49;;;;;;;;;9.00;9.00;;;;;;;;5084762;28;11588;-74
2022/05/14 20:28:15;;;;;;;;;11.00;9.00;;;;;;;;5094170;28;22243;-75
2022/05/14 20:30:41;;;;;;;;;9.75;9.75;;;;;;;;5088180;28;16326;-74
2022/05/14 20:33:07;;;;;;;;;13.50;10.00;;;;;;;;5086071;28;21542;-76
2022/05/14 20:35:37;;;;;;;;;10.00;9.00;;;;;;;;5070412;28;22865;-76
2022/05/14 20:38:06;;;;;;;;;8.00;8.00;;;;;;;;5090627;28;23062;-75
2022/05/14 20:40:35;;;;;;;;;13.50;9.75;;;;;;;;5071033;28;23274;-78
2022/05/14 20:43:01;;;;;;;;;10.00;8.50;;;;;;;;5074412;28;21752;-77
2022/05/14 20:45:26;;;;;;;;;10.00;9.00;;;;;;;;5090810;28;10533;-78
2022/05/14 20:47:51;;;;;;;;;9.00;9.00;;;;;;;;5091853;28;10482;-75
2022/05/14 20:50:17;;;;;;;;;8.75;8.00;;;;;;;;5090357;28;16530;-75
2022/05/14 20:52:42;;;;;;;;;12.75;10.00;;;;;;;;5087509;28;10359;-75
2022/05/14 20:55:10;;;;;;;;;8.25;8.25;;;;;;;;5090231;28;22684;-75
2022/05/14 20:57:35;;;;;;;;;9.50;9.50;;;;;;;;5089548;28;22488;-73
2022/05/14 21:00:00;;;;;;;;;9.00;9.00;;;;;;;;5088179;28;11356;-75
2022/05/14 21:02:26;;;;;;;;;12.75;9.00;;;;;;;;5093492;28;8882;-75
2022/05/14 21:04:52;;;;;;;;;14.50;12.50;;;;;;;;5100447;28;16397;-73
2022/05/14 21:07:17;;;;;;;;;13.00;13.00;;;;;;;;5100888;28;21993;-74
2022/05/14 21:09:43;;;;;;;;;13.25;11.00;;;;;;;;5095089;28;11604;-75
2022/05/14 21:12:09;;;;;;;;;12.50;10.75;;;;;;;;5090598;28;9503;-74
2022/05/14 21:14:34;;;;;;;;;11.00;9.50;;;;;;;;5089958;28;11364;-75
2022/05/14 21:17:00;;;;;;;;;10.50;7.00;;;;;;;;5089341;28;21616;-75
2022/05/14 21:19:25;;;;;;;;;9.75;9.00;;;;;;;;5100009;28;11460;-74
2022/05/14 21:21:51;;;;;;;;;10.50;9.50;;;;;;;;5099327;28;21329;-72
2022/05/14 21:24:18;;;;;;;;;13.50;9.00;;;;;;;;5099338;28;21436;-74
2022/05/14 21:26:43;;;;;;;;;15.75;11.00;;;;;;;;5100825;28;10798;-74
2022/05/14 21:29:09;;;;;;;;;11.00;10.00;;;;;;;;5100047;28;22579;-74
2022/05/14 21:31:35;;;;;;;;;10.25;9.75;;;;;;;;5100246;28;10503;-75
2022/05/14 21:39:29;;;;;;;;;9.75;9.75;;;;;;;;5100475;28;11565;-75
2022/05/14 21:41:54;;;;;;;;;12.75;10.00;;;;;;;;5100005;28;22365;-73
2022/05/14 21:44:19;;;;;;;;;11.00;7.75;;;;;;;;5099767;28;22581;-74
2022/05/14 21:46:45;;;;;;;;;11.75;11.00;;;;;;;;5100332;28;22464;-74
2022/05/14 21:49:10;;;;;;;;;10.50;9.25;;;;;;;;5099860;28;21976;-74
2022/05/14 21:51:35;;;;;;;;;13.25;10.75;;;;;;;;5100047;28;21567;-74
2022/05/14 21:54:02;;;;;;;;;13.50;12.25;;;;;;;;5099435;28;21506;-73
2022/05/14 21:56:27;;;;;;;;;11.75;11.00;;;;;;;;5099584;28;9961;-74
2022/05/14 21:58:53;;;;;;;;;8.50;8.00;;;;;;;;5099860;28;11387;-75
2022/05/14 22:01:24;;;;;;;;;10.25;8.00;;;;;;;;5098798;28;22287;-75
2022/05/14 22:03:50;;;;;;;;;14.75;9.00;;;;;;;;5098527;28;16608;-75
2022/05/14 22:06:16;;;;;;;;;11.00;10.00;;;;;;;;5100141;28;10741;-73
2022/05/14 22:08:41;;;;;;;;;11.00;9.50;;;;;;;;5099463;28;23228;-74
2022/05/14 22:11:07;;;;;;;;;11.00;10.25;;;;;;;;5099181;28;16513;-74
2022/05/14 22:13:32;;;;;;;;;10.75;9.75;;;;;;;;5099780;28;17428;-75
2022/05/14 22:15:57;;;;;;;;;11.50;9.00;;;;;;;;5100073;28;21739;-74
2022/05/14 22:18:23;;;;;;;;;9.50;8.00;;;;;;;;5101120;28;11758;-73
2022/05/14 22:20:51;;;;;;;;;12.00;9.50;;;;;;;;5081705;28;22247;-74
2022/05/14 22:23:16;;;;;;;;;11.00;11.00;;;;;;;;5099463;28;21647;-72
2022/05/14 22:25:42;;;;;;;;;13.50;11.25;;;;;;;;5098763;28;22026;-73
2022/05/14 22:28:07;;;;;;;;;15.00;12.50;;;;;;;;5099386;28;11342;-74
2022/05/14 22:30:32;;;;;;;;;12.00;12.00;;;;;;;;5100184;28;11371;-73
2022/05/14 22:32:58;;;;;;;;;0.75;0.50;;;;;;;;5099711;28;11351;-75
2022/05/14 22:35:23;;;;;;;;;11.00;11.00;;;;;;;;5099283;28;22682;-75
2022/05/14 22:37:48;;;;;;;;;13.00;12.25;;;;;;;;5099127;28;23975;-73
2022/05/14 22:43:05;;;;;;;;;10.25;9.25;;;;;;;;5100291;28;10382;-74
2022/05/14 22:45:31;;;;;;;;;12.75;12.50;;;;;;;;5098537;28;21814;-74
2022/05/14 22:47:57;;;;;;;;;14.25;11.75;;;;;;;;5098838;28;21881;-75
2022/05/14 22:50:23;;;;;;;;;14.25;11.75;;;;;;;;5099373;28;11392;-75
2022/05/14 22:52:49;;;;;;;;;16.00;13.25;;;;;;;;5099743;28;8798;-74
2022/05/14 22:55:15;;;;;;;;;11.50;10.25;;;;;;;;5099236;28;10960;-75
2022/05/14 22:57:40;;;;;;;;;13.00;12.75;;;;;;;;5098924;28;11949;-74
2022/05/14 23:00:07;;;;;;;;;16.75;14.00;;;;;;;;5098932;28;11063;-74
2022/05/14 23:02:36;;;;;;;;;12.50;12.50;;;;;;;;5099041;28;11454;-73
2022/05/14 23:05:03;;;;;;;;;15.25;13.00;;;;;;;;5098599;28;12226;-74
2022/05/14 23:07:29;;;;;;;;;16.75;15.75;;;;;;;;5099096;28;11457;-76
2022/05/14 23:09:54;;;;;;;;;15.25;11.25;;;;;;;;5099064;28;11847;-73
2022/05/14 23:12:20;;;;;;;;;12.50;10.25;;;;;;;;5098971;28;11421;-74
2022/05/14 23:14:45;;;;;;;;;13.00;11.00;;;;;;;;5098476;28;10642;-74
2022/05/14 23:17:10;;;;;;;;;17.75;14.25;;;;;;;;5098966;28;11874;-75
2022/05/14 23:19:36;;;;;;;;;14.00;13.75;;;;;;;;5098749;28;11360;-74
2022/05/14 23:22:01;;;;;;;;;14.75;13.50;;;;;;;;5098628;28;10345;-75
2022/05/14 23:24:26;;;;;;;;;20.25;15.00;;;;;;;;5098718;28;8787;-74
2022/05/14 23:26:51;;;;;;;;;17.75;15.75;;;;;;;;5080153;28;13593;-75
2022/05/14 23:29:17;;;;;;;;;20.00;17.00;;;;;;;;5099394;28;13670;-74
2022/05/14 23:31:42;;;;;;;;;26.50;19.25;;;;;;;;5099098;28;13218;-75
2022/05/14 23:34:07;;;;;;;;;20.00;16.50;;;;;;;;5099443;28;10873;-75
2022/05/14 23:36:33;;;;;;;;;16.50;16.50;;;;;;;;5099157;28;11166;-74
2022/05/14 23:38:59;;;;;;;;;17.50;16.00;;;;;;;;5098654;28;10827;-74
2022/05/14 23:41:25;;;;;;;;;15.75;14.00;;;;;;;;5098579;28;11504;-75
2022/05/14 23:43:51;;;;;;;;;11.50;10.00;;;;;;;;5098297;28;11454;-75
2022/05/14 23:46:16;;;;;;;;;18.00;16.00;;;;;;;;5098547;28;10365;-74
2022/05/14 23:48:41;;;;;;;;;14.00;13.25;;;;;;;;5098236;28;10722;-73
2022/05/14 23:51:06;;;;;;;;;14.50;12.50;;;;;;;;5097808;28;11398;-74
2022/05/14 23:53:32;;;;;;;;;13.75;13.00;;;;;;;;5098968;28;10340;-75